Time;durP1;ratioP1;P1;durP2;ratioP2;P2;SDS_P1;SDS_P2;PMS_P1;PMS_P2;Temp;Humidity;BMP_temperature;BMP_pressure;BME280_temperature;BME280_humidity;BME280_pressure;Samples;Min_cycle;Max_cycle;Signal;HPM_P1;HPM_P2
2023/03/05 00:01:33;;;;;;;19.90;4.30;;;2.50;99.90;;;;;;5054297;28;20037;-81
2023/03/05 00:04:00;;;;;;;13.82;4.07;;;2.50;99.90;;;;;;5049919;28;20033;-82
2023/03/05 00:06:30;;;;;;;19.63;4.30;;;2.50;99.90;;;;;;5052589;28;20063;-83
2023/03/05 00:08:57;;;;;;;18.73;4.97;;;2.50;99.90;;;;;;5040604;28;20025;-82
2023/03/05 00:11:24;;;;;;;19.95;3.53;;;2.50;99.90;;;;;;5040759;28;20036;-82
2023/03/05 00:13:54;;;;;;;17.08;4.13;;;2.50;99.90;;;;;;5042068;28;20025;-82
2023/03/05 00:16:21;;;;;;;15.30;3.72;;;2.50;99.90;;;;;;5053070;28;20638;-83
2023/03/05 00:18:47;;;;;;;16.65;3.35;;;2.50;99.90;;;;;;5043918;28;20029;-85
2023/03/05 00:21:19;;;;;;;19.27;3.10;;;2.50;99.90;;;;;;5045619;28;20032;-82
2023/03/05 00:23:45;;;;;;;17.08;3.45;;;2.50;99.90;;;;;;5043394;28;20405;-82
2023/03/05 00:26:13;;;;;;;19.98;4.10;;;2.50;99.90;;;;;;5047208;28;20028;-84
2023/03/05 00:28:39;;;;;;;17.98;4.05;;;2.50;99.90;;;;;;5049553;28;20497;-80
2023/03/05 00:31:04;;;;;;;18.25;3.05;;;2.60;99.90;;;;;;5041338;28;20033;-81
2023/03/05 00:33:30;;;;;;;12.48;3.38;;;2.50;99.90;;;;;;5051616;28;20093;-86
2023/03/05 00:35:56;;;;;;;22.15;3.60;;;2.60;99.90;;;;;;5034155;28;20049;-81
2023/03/05 00:38:21;;;;;;;11.23;4.43;;;2.50;99.90;;;;;;5041443;28;20032;-85
2023/03/05 00:40:49;;;;;;;14.00;2.70;;;2.50;99.90;;;;;;5063553;28;20147;-83
2023/03/05 00:43:15;;;;;;;15.35;3.15;;;2.50;99.90;;;;;;5040961;28;20033;-82
2023/03/05 00:45:40;;;;;;;13.27;3.00;;;2.50;99.90;;;;;;5047460;28;20024;-85
2023/03/05 00:48:06;;;;;;;15.10;3.17;;;2.50;99.90;;;;;;5031397;28;20052;-82
2023/03/05 00:50:31;;;;;;;11.40;2.92;;;2.60;99.90;;;;;;5040141;28;20025;-85
2023/03/05 00:52:57;;;;;;;8.70;3.00;;;2.50;99.90;;;;;;5046563;28;20474;-83
2023/03/05 00:55:23;;;;;;;10.00;2.97;;;2.60;99.90;;;;;;5043635;28;20017;-82
2023/03/05 00:57:48;;;;;;;18.83;3.42;;;2.50;99.90;;;;;;5046067;28;20350;-85
2023/03/05 01:00:15;;;;;;;11.20;2.97;;;2.50;99.90;;;;;;5039731;28;20075;-84
2023/03/05 01:02:40;;;;;;;3.50;2.22;;;2.50;99.90;;;;;;5050776;28;20037;-88
2023/03/05 01:05:07;;;;;;;14.18;3.40;;;2.50;99.90;;;;;;5043180;28;20037;-83
2023/03/05 01:07:32;;;;;;;17.42;3.97;;;2.50;99.90;;;;;;5050017;28;20458;-80
2023/03/05 01:09:59;;;;;;;23.20;3.30;;;2.50;99.90;;;;;;5042002;28;20088;-87
2023/03/05 01:12:24;;;;;;;18.38;3.50;;;2.50;99.90;;;;;;5036325;28;20520;-81
2023/03/05 01:14:50;;;;;;;15.88;3.00;;;2.50;99.90;;;;;;5047805;28;20025;-86
2023/03/05 01:17:15;;;;;;;15.82;3.35;;;2.50;99.90;;;;;;5044225;28;20025;-82
2023/03/05 01:19:41;;;;;;;16.33;3.78;;;2.50;99.90;;;;;;5042573;28;20036;-79
2023/03/05 01:22:06;;;;;;;16.30;3.47;;;2.60;99.90;;;;;;5042703;28;20514;-81
2023/03/05 01:24:32;;;;;;;24.13;3.70;;;2.50;99.90;;;;;;5048317;28;20080;-82
2023/03/05 01:26:58;;;;;;;9.50;3.00;;;2.50;99.90;;;;;;5043992;28;20078;-82
2023/03/05 01:29:23;;;;;;;16.75;3.03;;;2.50;99.90;;;;;;5052977;28;20044;-82
2023/03/05 01:31:49;;;;;;;21.88;3.97;;;2.50;99.90;;;;;;5048341;28;20045;-84
2023/03/05 01:34:14;;;;;;;9.13;3.08;;;2.50;99.90;;;;;;5041728;28;20473;-81
2023/03/05 01:36:41;;;;;;;18.60;3.58;;;2.50;99.90;;;;;;5044590;28;20021;-82
2023/03/05 01:39:07;;;;;;;12.52;3.63;;;2.50;99.90;;;;;;5046376;28;20045;-85
2023/03/05 01:41:33;;;;;;;18.65;3.42;;;2.50;99.90;;;;;;5050352;28;20173;-84
2023/03/05 01:43:59;;;;;;;20.35;4.00;;;2.50;99.90;;;;;;5048288;28;20047;-86
2023/03/05 01:46:34;;;;;;;22.13;3.78;;;2.40;99.90;;;;;;5040297;28;20116;-85
2023/03/05 01:49:00;;;;;;;;;;;2.40;99.90;;;;;;5048095;28;20036;-86
2023/03/05 01:51:30;;;;;;;18.75;3.55;;;2.40;99.90;;;;;;5043637;28;19906;-80
2023/03/05 01:53:58;;;;;;;21.17;3.92;;;2.40;99.90;;;;;;5046534;28;20228;-84
2023/03/05 01:56:25;;;;;;;14.32;3.25;;;2.40;99.90;;;;;;5037714;28;20040;-83
2023/03/05 01:58:52;;;;;;;27.17;4.50;;;2.40;99.90;;;;;;5041429;28;20036;-82
2023/03/05 02:01:17;;;;;;;14.70;3.22;;;2.30;99.90;;;;;;5031177;28;20478;-84
2023/03/05 02:03:43;;;;;;;16.75;3.25;;;2.30;99.90;;;;;;5051356;28;20511;-82
2023/03/05 02:06:09;;;;;;;18.23;3.25;;;2.30;99.90;;;;;;5033542;28;20030;-82
2023/03/05 02:08:35;;;;;;;20.40;5.45;;;2.40;99.90;;;;;;5036912;28;20059;-80
2023/03/05 02:11:01;;;;;;;14.55;3.45;;;2.40;99.90;;;;;;5042834;28;20031;-82
2023/03/05 02:13:30;;;;;;;10.07;2.60;;;2.40;99.90;;;;;;5033232;28;20026;-82
2023/03/05 02:15:58;;;;;;;16.65;3.67;;;2.40;99.90;;;;;;5045911;28;20453;-81
2023/03/05 02:18:24;;;;;;;15.82;3.75;;;2.40;99.90;;;;;;5036085;28;20025;-80
2023/03/05 02:20:55;;;;;;;10.40;2.55;;;2.40;99.90;;;;;;5046051;28;20088;-83
2023/03/05 02:23:26;;;;;;;11.15;3.05;;;2.40;99.90;;;;;;5044040;28;20106;-80
2023/03/05 02:26:07;;;;;;;19.60;3.38;;;2.40;99.90;;;;;;5040545;28;20036;-84
2023/03/05 02:28:43;;;;;;;14.07;3.50;;;2.40;99.90;;;;;;5053554;28;20029;-80
2023/03/05 02:31:13;;;;;;;;;;;2.40;99.90;;;;;;5057542;28;20078;-82
2023/03/05 02:33:39;;;;;;;18.40;3.95;;;2.40;99.90;;;;;;5058579;28;20319;-88
2023/03/05 02:36:05;;;;;;;18.08;5.15;;;2.40;99.90;;;;;;5040510;28;20044;-82
2023/03/05 02:38:31;;;;;;;11.30;2.53;;;2.40;99.90;;;;;;5050565;28;20029;-81
2023/03/05 02:40:57;;;;;;;15.27;4.22;;;2.40;99.90;;;;;;5046391;28;20478;-82
2023/03/05 02:43:22;;;;;;;14.10;2.92;;;2.40;99.90;;;;;;5041902;28;20022;-81
2023/03/05 02:45:48;;;;;;;11.75;2.80;;;2.40;99.90;;;;;;5045834;28;20037;-82
2023/03/05 02:48:16;;;;;;;9.82;2.65;;;2.40;99.90;;;;;;5047771;28;20104;-84
2023/03/05 02:50:43;;;;;;;8.57;2.45;;;2.40;99.90;;;;;;5045219;28;20733;-80
2023/03/05 02:53:09;;;;;;;6.05;2.08;;;2.40;99.90;;;;;;5047036;28;20408;-83
2023/03/05 02:55:34;;;;;;;10.23;2.17;;;2.40;99.90;;;;;;5047534;28;20116;-83
2023/03/05 02:58:00;;;;;;;20.77;3.65;;;2.40;99.90;;;;;;5050230;28;20033;-80
2023/03/05 03:00:26;;;;;;;11.48;1.90;;;2.50;99.90;;;;;;5044437;28;20056;-86
2023/03/05 03:02:51;;;;;;;14.85;2.30;;;2.40;99.90;;;;;;5053468;28;20044;-81
2023/03/05 03:05:17;;;;;;;12.55;2.72;;;2.50;99.90;;;;;;5049598;28;20559;-81
2023/03/05 03:07:43;;;;;;;8.32;2.17;;;2.40;99.90;;;;;;5054444;28;20024;-83
2023/03/05 03:10:09;;;;;;;7.07;3.35;;;2.50;99.90;;;;;;5054608;28;20025;-82
2023/03/05 03:12:43;;;;;;;8.82;2.25;;;2.50;99.90;;;;;;5051946;28;20116;-82
2023/03/05 03:15:10;;;;;;;5.72;1.83;;;2.50;99.90;;;;;;5053122;28;20107;-84
2023/03/05 03:17:36;;;;;;;6.97;1.83;;;2.50;99.90;;;;;;5053932;28;20116;-82
2023/03/05 03:20:06;;;;;;;5.15;1.58;;;2.50;99.90;;;;;;5053688;28;20040;-80
2023/03/05 03:22:32;;;;;;;9.18;2.10;;;2.50;99.90;;;;;;5045977;28;20029;-82
2023/03/05 03:24:58;;;;;;;4.75;1.88;;;2.50;99.90;;;;;;5052550;28;20083;-84
2023/03/05 03:27:24;;;;;;;5.32;1.67;;;2.50;99.90;;;;;;5027453;28;20056;-83
2023/03/05 03:29:50;;;;;;;11.82;2.15;;;2.50;99.90;;;;;;5073730;28;20049;-80
2023/03/05 03:32:16;;;;;;;5.78;1.60;;;2.50;99.90;;;;;;5045336;28;20025;-81
2023/03/05 03:34:41;;;;;;;9.20;1.55;;;2.50;99.90;;;;;;5053342;28;20519;-82
2023/03/05 03:37:07;;;;;;;10.25;1.83;;;2.50;99.90;;;;;;5043345;28;20028;-83
2023/03/05 03:39:33;;;;;;;5.07;1.83;;;2.50;99.90;;;;;;5041186;28;20389;-81
2023/03/05 03:41:59;;;;;;;6.13;1.50;;;2.50;99.90;;;;;;5054898;28;20037;-82
2023/03/05 03:44:24;;;;;;;7.55;1.60;;;2.50;99.90;;;;;;5045522;28;20074;-85
2023/03/05 03:46:50;;;;;;;4.90;1.50;;;2.50;99.90;;;;;;5055301;28;20025;-85
2023/03/05 03:49:22;;;;;;;5.93;2.03;;;2.50;99.90;;;;;;5057498;28;20029;-82
2023/03/05 03:51:50;;;;;;;17.00;1.70;;;2.50;99.90;;;;;;5051196;28;20043;-80
2023/03/05 03:54:17;;;;;;;7.78;1.90;;;2.40;99.90;;;;;;5058477;28;20033;-80
2023/03/05 03:56:43;;;;;;;10.60;1.65;;;2.40;99.90;;;;;;5051931;28;20021;-81
2023/03/05 03:59:09;;;;;;;5.70;1.30;;;2.50;99.90;;;;;;5057375;28;20031;-82
2023/03/05 04:01:35;;;;;;;5.10;1.67;;;2.40;99.90;;;;;;5045933;28;20064;-80
2023/03/05 04:04:09;;;;;;;6.53;1.63;;;2.40;99.90;;;;;;5054423;28;20048;-81
2023/03/05 04:06:34;;;;;;;5.88;1.98;;;2.40;99.90;;;;;;5048831;28;20119;-80
2023/03/05 04:09:00;;;;;;;12.63;1.60;;;2.40;99.90;;;;;;5064480;28;20120;-86
2023/03/05 04:11:26;;;;;;;3.00;1.65;;;2.50;99.90;;;;;;5057295;28;20025;-84
2023/03/05 04:13:51;;;;;;;10.18;1.85;;;2.50;99.90;;;;;;5066431;28;20458;-81
2023/03/05 04:16:18;;;;;;;7.78;2.15;;;2.50;99.90;;;;;;5060611;28;20032;-80
2023/03/05 04:18:44;;;;;;;10.93;1.50;;;2.50;99.90;;;;;;5057963;28;20404;-80
2023/03/05 04:21:10;;;;;;;8.13;1.38;;;2.50;99.90;;;;;;5057520;28;20024;-80
2023/03/05 04:23:36;;;;;;;4.85;1.20;;;2.50;99.90;;;;;;5056796;28;20058;-82
2023/03/05 04:26:02;;;;;;;10.63;2.35;;;2.50;99.90;;;;;;5059354;28;20029;-81
2023/03/05 04:28:29;;;;;;;13.60;2.03;;;2.50;99.90;;;;;;5056506;28;20116;-82
2023/03/05 04:30:54;;;;;;;7.68;2.38;;;2.50;99.90;;;;;;5052532;28;20029;-80
2023/03/05 04:33:20;;;;;;;16.88;2.20;;;2.50;99.90;;;;;;5063393;28;20035;-81
2023/03/05 04:35:46;;;;;;;7.13;1.60;;;2.50;99.90;;;;;;5053728;28;20423;-80
2023/03/05 04:38:14;;;;;;;5.05;1.83;;;2.60;99.90;;;;;;5058605;28;20470;-82
2023/03/05 04:40:40;;;;;;;5.38;1.67;;;2.60;99.90;;;;;;5053723;28;20017;-82
2023/03/05 04:43:08;;;;;;;12.00;2.42;;;2.60;99.90;;;;;;5056679;28;20040;-85
2023/03/05 04:45:34;;;;;;;8.50;2.30;;;2.60;99.90;;;;;;5059238;28;20473;-82
2023/03/05 04:48:00;;;;;;;17.23;2.63;;;2.60;99.90;;;;;;5059331;28;20054;-82
2023/03/05 04:50:25;;;;;;;13.10;2.95;;;2.60;99.90;;;;;;5052851;28;20024;-82
2023/03/05 04:52:51;;;;;;;8.10;2.25;;;2.50;99.90;;;;;;5048669;28;20090;-82
2023/03/05 04:55:18;;;;;;;5.47;2.22;;;2.50;99.90;;;;;;5050047;28;20393;-86
2023/03/05 04:57:43;;;;;;;15.10;2.45;;;2.50;99.90;;;;;;5059812;28;20035;-87
2023/03/05 05:00:17;;;;;;;9.20;2.28;;;2.50;99.90;;;;;;5045226;28;20437;-82
2023/03/05 05:02:46;;;;;;;11.52;2.38;;;2.50;99.90;;;;;;5049975;28;20039;-81
2023/03/05 05:05:14;;;;;;;8.82;2.25;;;2.40;99.90;;;;;;5050221;28;20550;-83
2023/03/05 05:07:40;;;;;;;5.30;1.83;;;2.50;99.90;;;;;;5048296;28;20112;-83
2023/03/05 05:10:07;;;;;;;12.70;3.30;;;2.40;99.90;;;;;;5053930;28;20108;-82
2023/03/05 05:12:33;;;;;;;11.90;2.17;;;2.40;99.90;;;;;;5057083;28;20249;-81
2023/03/05 05:15:00;;;;;;;9.38;2.55;;;2.40;99.90;;;;;;5044035;28;20029;-85
2023/03/05 05:17:31;;;;;;;10.52;2.60;;;2.40;99.90;;;;;;5049594;28;20029;-81
2023/03/05 05:20:00;;;;;;;8.57;2.15;;;2.50;99.90;;;;;;5043895;28;20032;-87
2023/03/05 05:22:28;;;;;;;7.35;1.77;;;2.50;99.90;;;;;;5052186;28;20030;-83
2023/03/05 05:24:54;;;;;;;6.47;2.10;;;2.60;99.90;;;;;;5050780;28;20073;-80
2023/03/05 05:27:20;;;;;;;6.35;1.98;;;2.60;99.90;;;;;;5055772;28;20528;-82
2023/03/05 05:29:49;;;;;;;8.50;2.70;;;2.60;99.90;;;;;;5050449;28;20429;-81
2023/03/05 05:32:18;;;;;;;14.48;1.80;;;2.60;99.90;;;;;;5050725;28;20107;-82
2023/03/05 05:34:44;;;;;;;4.68;1.67;;;2.60;99.90;;;;;;5064294;28;20451;-82
2023/03/05 05:37:09;;;;;;;6.53;1.70;;;2.60;99.90;;;;;;5055672;28;20021;-81
2023/03/05 05:39:35;;;;;;;3.45;1.58;;;2.60;99.90;;;;;;5057495;28;20021;-83
2023/03/05 05:42:01;;;;;;;9.80;2.88;;;2.60;99.90;;;;;;5056922;28;20087;-81
2023/03/05 05:44:28;;;;;;;5.72;1.75;;;2.60;99.90;;;;;;5046817;28;20379;-82
2023/03/05 05:46:54;;;;;;;2.90;1.50;;;2.60;99.90;;;;;;5054689;28;20442;-82
2023/03/05 05:49:20;;;;;;;9.18;1.77;;;2.60;99.90;;;;;;5051633;28;20059;-83
2023/03/05 05:51:45;;;;;;;3.50;1.30;;;2.60;99.90;;;;;;5052965;28;20033;-81
2023/03/05 05:54:14;;;;;;;3.17;1.50;;;2.60;99.90;;;;;;5048522;28;20132;-86
2023/03/05 05:56:43;;;;;;;9.43;1.80;;;2.60;99.90;;;;;;5054259;28;20300;-83
2023/03/05 05:59:09;;;;;;;6.13;1.70;;;2.60;99.90;;;;;;5064996;28;20024;-84
2023/03/05 06:01:38;;;;;;;6.78;1.90;;;2.60;99.90;;;;;;5058830;28;20325;-86
2023/03/05 06:04:04;;;;;;;7.30;2.15;;;2.50;99.90;;;;;;5060914;28;20036;-81
2023/03/05 06:06:33;;;;;;;7.95;2.20;;;2.50;99.90;;;;;;5056698;28;20035;-84
2023/03/05 06:08:59;;;;;;;3.63;2.05;;;2.50;99.90;;;;;;5053144;28;20040;-81
2023/03/05 06:11:25;;;;;;;6.70;2.38;;;2.40;99.90;;;;;;5048559;28;20108;-81
2023/03/05 06:13:51;;;;;;;4.90;2.05;;;2.40;99.90;;;;;;5057041;28;20159;-86
2023/03/05 06:16:19;;;;;;;3.72;2.13;;;2.50;99.90;;;;;;5054652;28;20256;-81
2023/03/05 06:18:46;;;;;;;13.85;2.28;;;2.40;99.90;;;;;;5054278;28;20025;-82
2023/03/05 06:21:14;;;;;;;7.85;2.35;;;2.40;99.90;;;;;;5055531;28;20477;-85
2023/03/05 06:23:41;;;;;;;6.40;2.35;;;2.50;99.90;;;;;;5050924;28;20427;-83
2023/03/05 06:26:07;;;;;;;11.23;2.40;;;2.50;99.90;;;;;;5054673;28;20056;-83
2023/03/05 06:28:34;;;;;;;5.90;2.38;;;2.50;99.90;;;;;;5047148;28;20045;-84
2023/03/05 06:31:12;;;;;;;3.35;2.10;;;2.50;99.90;;;;;;5037629;28;20032;-86
2023/03/05 06:33:39;;;;;;;4.13;2.55;;;2.50;99.90;;;;;;5046772;28;20029;-81
2023/03/05 06:36:07;;;;;;;13.88;3.15;;;2.50;99.90;;;;;;5051675;28;20067;-81
2023/03/05 06:38:36;;;;;;;10.63;2.28;;;2.50;99.90;;;;;;5047364;28;20029;-87
2023/03/05 06:41:11;;;;;;;8.65;3.85;;;2.50;99.90;;;;;;5051612;28;20542;-82
2023/03/05 06:43:39;;;;;;;14.98;2.85;;;2.60;99.90;;;;;;5041291;28;20041;-85
2023/03/05 06:46:09;;;;;;;10.07;3.55;;;2.60;99.90;;;;;;5044732;28;20044;-86
2023/03/05 06:48:35;;;;;;;8.13;3.10;;;2.60;99.90;;;;;;5040307;28;20433;-83
2023/03/05 06:51:00;;;;;;;13.07;4.07;;;2.60;99.90;;;;;;5048435;28;20124;-88
2023/03/05 06:53:26;;;;;;;7.80;3.10;;;2.60;99.90;;;;;;5045045;28;20505;-87
2023/03/05 06:55:52;;;;;;;14.57;3.25;;;2.60;99.90;;;;;;5044468;28;20033;-87
2023/03/05 06:58:19;;;;;;;7.43;2.78;;;2.60;99.90;;;;;;5053247;28;20029;-83
2023/03/05 07:00:44;;;;;;;8.05;2.67;;;2.60;99.90;;;;;;5051509;28;20481;-87
2023/03/05 07:03:10;;;;;;;11.73;3.25;;;2.60;99.90;;;;;;5053733;28;20056;-85
2023/03/05 07:05:40;;;;;;;17.35;3.45;;;2.60;99.90;;;;;;5051619;28;20043;-83
2023/03/05 07:08:06;;;;;;;12.18;3.25;;;2.60;99.90;;;;;;5063800;28;20036;-82
2023/03/05 07:10:37;;;;;;;7.55;2.45;;;2.60;99.90;;;;;;5061700;28;20036;-81
2023/03/05 07:13:02;;;;;;;13.32;2.90;;;2.70;99.90;;;;;;5041410;28;20040;-81
2023/03/05 07:15:28;;;;;;;6.07;2.22;;;2.60;99.90;;;;;;5044367;28;20021;-80
2023/03/05 07:17:55;;;;;;;7.05;2.50;;;2.70;99.90;;;;;;5052341;28;20038;-82
2023/03/05 07:20:20;;;;;;;5.55;2.15;;;2.70;99.90;;;;;;5045523;28;20053;-82
2023/03/05 07:22:46;;;;;;;6.38;2.17;;;2.80;99.90;;;;;;5056297;28;20032;-81
2023/03/05 07:25:12;;;;;;;4.53;1.80;;;2.80;99.90;;;;;;5043313;28;20119;-81
2023/03/05 07:27:38;;;;;;;14.55;3.22;;;2.80;99.90;;;;;;5057563;28;20525;-81
2023/03/05 07:30:04;;;;;;;5.70;1.90;;;2.80;99.90;;;;;;5046761;28;20398;-82
2023/03/05 07:32:30;;;;;;;7.13;2.17;;;2.80;99.90;;;;;;5058406;28;20033;-82
2023/03/05 07:34:56;;;;;;;9.65;2.58;;;2.90;99.90;;;;;;5044087;28;20052;-86
2023/03/05 07:37:21;;;;;;;11.77;2.45;;;2.90;99.90;;;;;;5056868;28;20369;-83
2023/03/05 07:39:47;;;;;;;6.82;1.88;;;3.00;99.90;;;;;;5058893;28;20106;-82
2023/03/05 07:42:12;;;;;;;4.78;1.60;;;2.90;99.90;;;;;;5047291;28;20470;-84
2023/03/05 07:44:39;;;;;;;3.10;1.77;;;3.00;99.90;;;;;;5053016;28;20101;-83
2023/03/05 07:47:05;;;;;;;8.40;2.22;;;3.10;99.90;;;;;;5054436;28;20078;-82
2023/03/05 07:49:31;;;;;;;12.07;2.50;;;3.00;99.90;;;;;;5043162;28;20481;-84
2023/03/05 07:51:56;;;;;;;4.65;2.38;;;3.10;99.90;;;;;;5051501;28;20045;-84
2023/03/05 07:54:22;;;;;;;6.22;1.90;;;3.10;99.90;;;;;;5041155;28;20029;-81
2023/03/05 07:56:47;;;;;;;7.65;2.63;;;3.10;99.90;;;;;;5051967;28;20061;-84
2023/03/05 07:59:13;;;;;;;5.72;2.33;;;3.10;99.90;;;;;;5039766;28;20034;-84
2023/03/05 08:01:39;;;;;;;6.63;2.00;;;3.10;99.90;;;;;;5037873;28;20063;-83
2023/03/05 08:04:06;;;;;;;7.35;1.80;;;3.20;99.90;;;;;;5042707;28;20390;-83
2023/03/05 08:06:31;;;;;;;11.32;2.00;;;3.20;99.90;;;;;;5042532;28;20036;-81
2023/03/05 08:08:57;;;;;;;12.43;3.60;;;3.20;99.90;;;;;;5040337;28;20028;-81
2023/03/05 08:11:24;;;;;;;7.57;2.13;;;3.30;99.90;;;;;;5046692;28;20100;-81
2023/03/05 08:13:50;;;;;;;14.13;3.10;;;3.40;99.90;;;;;;5039658;28;20047;-82
2023/03/05 08:16:18;;;;;;;6.38;1.67;;;3.40;99.90;;;;;;5051612;28;20104;-82
2023/03/05 08:18:44;;;;;;;5.22;1.75;;;3.40;99.90;;;;;;5038924;28;20689;-81
2023/03/05 08:21:29;;;;;;;3.53;1.80;;;3.40;99.90;;;;;;5043025;28;20492;-90
2023/03/05 08:23:56;;;;;;;4.90;1.60;;;3.40;99.90;;;;;;5043244;28;20045;-84
2023/03/05 08:26:25;;;;;;;8.07;1.55;;;3.50;99.90;;;;;;5044564;28;20037;-84
2023/03/05 08:28:51;;;;;;;5.63;1.88;;;3.50;99.90;;;;;;5037424;28;20408;-90
2023/03/05 08:31:20;;;;;;;3.55;1.67;;;3.60;99.90;;;;;;5043277;28;20115;-87
2023/03/05 08:33:46;;;;;;;10.02;1.83;;;3.60;99.90;;;;;;5040483;28;20030;-87
2023/03/05 08:36:12;;;;;;;9.90;3.35;;;3.50;99.90;;;;;;5045114;28;20075;-86
2023/03/05 08:38:41;;;;;;;11.82;2.05;;;3.50;99.90;;;;;;5041654;28;20029;-84
2023/03/05 08:41:06;;;;;;;8.13;1.70;;;3.50;99.90;;;;;;5045154;28;20033;-82
2023/03/05 08:43:32;;;;;;;4.63;1.70;;;3.50;99.90;;;;;;5034635;28;20029;-83
2023/03/05 08:45:59;;;;;;;3.53;1.50;;;3.50;99.90;;;;;;5043086;28;20043;-84
2023/03/05 08:48:25;;;;;;;3.28;1.70;;;3.40;99.90;;;;;;5039379;28;20033;-84
2023/03/05 08:50:50;;;;;;;11.98;2.35;;;3.40;99.90;;;;;;5038624;28;20389;-84
2023/03/05 08:53:16;;;;;;;6.68;2.33;;;3.40;99.90;;;;;;5042938;28;20033;-90
2023/03/05 08:55:42;;;;;;;7.30;2.10;;;3.40;99.90;;;;;;5047006;28;20524;-82
2023/03/05 08:58:07;;;;;;;8.95;2.25;;;3.40;99.90;;;;;;5043521;28;20428;-81
2023/03/05 09:00:33;;;;;;;4.82;2.30;;;3.40;99.90;;;;;;5040940;28;20116;-83
2023/03/05 09:02:59;;;;;;;11.10;3.15;;;3.40;99.90;;;;;;5044051;28;20493;-81
2023/03/05 09:05:24;;;;;;;5.20;2.65;;;3.50;99.90;;;;;;5042366;28;20063;-83
2023/03/05 09:07:50;;;;;;;9.13;2.72;;;3.50;99.90;;;;;;5040779;28;20029;-82
2023/03/05 09:10:17;;;;;;;4.97;2.20;;;3.60;99.90;;;;;;5050218;28;20517;-83
2023/03/05 09:12:43;;;;;;;8.60;2.88;;;3.60;99.90;;;;;;5047134;28;20018;-84
2023/03/05 09:15:10;;;;;;;10.13;2.65;;;3.70;99.90;;;;;;5037470;28;20025;-88
2023/03/05 09:17:37;;;;;;;3.85;1.52;;;3.70;99.90;;;;;;5043848;28;20083;-83
2023/03/05 09:20:05;;;;;;;10.30;2.78;;;3.70;99.90;;;;;;5041979;28;20034;-81
2023/03/05 09:22:31;;;;;;;4.93;3.35;;;3.70;99.90;;;;;;5043326;28;20051;-82
2023/03/05 09:24:56;;;;;;;13.85;2.40;;;3.80;99.90;;;;;;5047782;28;20068;-82
2023/03/05 09:27:22;;;;;;;8.82;2.72;;;3.70;99.90;;;;;;5038539;28;20242;-89
2023/03/05 09:29:48;;;;;;;7.63;2.28;;;3.70;99.90;;;;;;5049085;28;20090;-81
2023/03/05 09:32:14;;;;;;;8.68;2.85;;;3.70;99.90;;;;;;5042631;28;20029;-87
2023/03/05 09:34:40;;;;;;;9.45;2.58;;;3.70;99.90;;;;;;5032839;28;20241;-90
2023/03/05 09:37:05;;;;;;;7.47;2.28;;;3.70;99.90;;;;;;5030260;28;20033;-82
2023/03/05 09:39:31;;;;;;;5.78;2.30;;;3.70;99.90;;;;;;5043685;28;20409;-81
2023/03/05 09:42:26;;;;;;;10.80;2.42;;;3.80;99.90;;;;;;5040115;28;20037;-87
2023/03/05 09:45:21;;;;;;;5.88;2.55;;;3.80;99.90;;;;;;5040554;28;20494;-85
2023/03/05 09:47:55;;;;;;;11.45;2.00;;;3.80;99.90;;;;;;5031799;28;20052;-82
2023/03/05 09:50:41;;;;;;;10.35;2.72;;;3.80;99.90;;;;;;5034321;28;20707;-83
2023/03/05 09:53:25;;;;;;;9.00;2.45;;;3.80;99.90;;;;;;5047293;28;20298;-85
2023/03/05 09:56:03;;;;;;;8.88;2.30;;;3.90;99.90;;;;;;5044361;28;20050;-86
2023/03/05 09:58:57;;;;;;;4.78;2.15;;;3.80;99.90;;;;;;5046561;28;20031;-84
2023/03/05 10:01:32;;;;;;;4.15;1.83;;;3.90;99.90;;;;;;5035431;28;20498;-89
2023/03/05 10:04:24;;;;;;;3.22;1.80;;;3.90;99.90;;;;;;5036113;28;20036;-85
2023/03/05 10:07:18;;;;;;;1.60;1.50;;;3.80;99.90;;;;;;5038701;28;20031;-82
2023/03/05 10:10:04;;;;;;;3.78;1.75;;;3.80;99.90;;;;;;5035965;28;20735;-87
2023/03/05 10:12:48;;;;;;;3.03;1.63;;;3.80;99.90;;;;;;5038827;28;20044;-83
2023/03/05 10:15:22;;;;;;;6.55;2.00;;;3.80;99.90;;;;;;5041057;28;20028;-81
2023/03/05 10:18:11;;;;;;;2.78;1.80;;;3.90;99.90;;;;;;5049452;28;20024;-84
2023/03/05 10:21:05;;;;;;;3.15;1.60;;;4.00;99.90;;;;;;5038582;28;20041;-89
2023/03/05 10:23:49;;;;;;;3.90;1.55;;;4.10;99.90;;;;;;5040542;28;20132;-80
2023/03/05 10:26:40;;;;;;;10.98;1.77;;;4.10;99.90;;;;;;5036642;28;20935;-81
2023/03/05 10:29:37;;;;;;;4.82;1.77;;;4.10;99.90;;;;;;5045041;28;20397;-86
2023/03/05 10:32:13;;;;;;;1.58;1.40;;;4.10;99.90;;;;;;5043774;28;20036;-85
2023/03/05 10:34:42;;;;;;;6.13;1.75;;;4.10;99.90;;;;;;5029813;28;20327;-87
2023/03/05 10:37:26;;;;;;;5.38;2.97;;;4.10;99.90;;;;;;5042095;28;20536;-80
2023/03/05 10:40:09;;;;;;;2.40;1.73;;;4.10;99.90;;;;;;5052575;28;20028;-81
2023/03/05 10:42:58;;;;;;;2.13;1.90;;;3.70;99.90;;;;;;5045774;28;20027;-88
2023/03/05 10:45:49;;;;;;;5.80;2.20;;;3.30;99.90;;;;;;5047099;28;20056;-92
2023/03/05 10:48:33;;;;;;;5.45;2.95;;;3.00;99.90;;;;;;5047882;28;20029;-80
2023/03/05 10:51:18;;;;;;;7.03;3.28;;;2.70;99.90;;;;;;5047294;28;20033;-85
2023/03/05 10:53:58;;;;;;;7.18;4.68;;;2.60;99.90;;;;;;5045089;28;20419;-81
2023/03/05 10:56:26;;;;;;;10.13;4.45;;;2.50;99.90;;;;;;5041608;28;20075;-85
2023/03/05 10:58:52;;;;;;;6.80;2.60;;;2.60;99.90;;;;;;5048519;28;20028;-84
2023/03/05 11:01:22;;;;;;;6.97;3.50;;;2.70;99.90;;;;;;5056820;28;20021;-81
2023/03/05 11:03:51;;;;;;;8.50;2.75;;;2.80;99.90;;;;;;5042260;28;20056;-85
2023/03/05 11:06:36;;;;;;;4.10;2.20;;;3.00;99.90;;;;;;5042362;28;20045;-81
2023/03/05 11:09:31;;;;;;;5.78;2.80;;;3.20;99.90;;;;;;5045528;28;20086;-88
2023/03/05 11:12:25;;;;;;;15.57;2.70;;;3.40;99.90;;;;;;5039447;28;20029;-84
2023/03/05 11:15:09;;;;;;;11.95;2.50;;;3.60;99.90;;;;;;5043963;28;20078;-83
2023/03/05 11:17:43;;;;;;;3.25;1.95;;;3.70;99.90;;;;;;5051726;28;20025;-86
2023/03/05 11:20:26;;;;;;;25.52;8.23;;;3.90;99.90;;;;;;5057241;28;20025;-80
2023/03/05 11:23:16;;;;;;;10.98;5.63;;;4.00;99.90;;;;;;5046009;28;20091;-85
2023/03/05 11:26:15;;;;;;;10.65;3.13;;;4.00;99.90;;;;;;5036797;28;20108;-88
2023/03/05 11:28:57;;;;;;;5.63;1.92;;;4.00;99.90;;;;;;5047377;28;20462;-86
2023/03/05 11:31:26;;;;;;;5.43;2.03;;;4.00;99.90;;;;;;5058378;28;20294;-84
2023/03/05 11:34:07;;;;;;;5.70;2.22;;;4.00;99.90;;;;;;5045442;28;20075;-86
2023/03/05 11:36:41;;;;;;;7.65;1.90;;;4.00;99.90;;;;;;5063776;28;20028;-84
2023/03/05 11:39:06;;;;;;;8.60;2.33;;;3.90;99.90;;;;;;5041950;28;20075;-82
2023/03/05 11:41:37;;;;;;;8.48;2.95;;;3.90;99.90;;;;;;5051143;28;20457;-82
2023/03/05 11:44:11;;;;;;;7.30;2.65;;;3.90;99.90;;;;;;5049266;28;20385;-82
2023/03/05 11:46:41;;;;;;;13.43;2.28;;;3.80;99.90;;;;;;5043673;28;20377;-84
2023/03/05 11:49:10;;;;;;;2.80;1.80;;;3.80;99.90;;;;;;5042182;28;20021;-80
2023/03/05 11:51:58;;;;;;;5.57;1.90;;;3.90;99.90;;;;;;5043728;28;20025;-84
2023/03/05 11:54:35;;;;;;;4.05;2.38;;;3.90;99.90;;;;;;5026908;28;20049;-82
2023/03/05 11:57:02;;;;;;;8.05;2.05;;;3.90;99.90;;;;;;5051304;28;20025;-83
2023/03/05 11:59:34;;;;;;;7.90;2.38;;;3.90;99.90;;;;;;5040930;28;20480;-80
2023/03/05 12:02:00;;;;;;;3.83;2.13;;;3.90;99.90;;;;;;5056951;28;20029;-85
2023/03/05 12:04:26;;;;;;;5.40;2.00;;;3.90;99.90;;;;;;5060998;28;20407;-86
2023/03/05 12:07:00;;;;;;;6.00;1.98;;;3.90;99.90;;;;;;5056023;28;20021;-80
2023/03/05 12:09:44;;;;;;;6.80;2.33;;;3.90;99.90;;;;;;5050298;28;20035;-88
2023/03/05 12:12:22;;;;;;;6.82;1.80;;;4.00;99.90;;;;;;5059977;28;20261;-86
2023/03/05 12:14:55;;;;;;;5.30;1.80;;;4.10;99.90;;;;;;5055462;28;20029;-82
2023/03/05 12:17:30;;;;;;;9.38;2.15;;;4.00;99.90;;;;;;5045408;28;20068;-86
2023/03/05 12:20:14;;;;;;;1.83;1.63;;;4.00;99.90;;;;;;5045644;28;20056;-82
2023/03/05 12:22:42;;;;;;;2.53;1.50;;;4.00;99.90;;;;;;5047721;28;20078;-79
2023/03/05 12:25:47;;;;;;;4.80;1.83;;;4.10;99.90;;;;;;5044741;28;20040;-84
2023/03/05 12:28:15;;;;;;;4.30;1.90;;;4.10;99.90;;;;;;5044676;28;20425;-79
2023/03/05 12:30:41;;;;;;;7.20;2.05;;;4.00;99.90;;;;;;5050723;28;20028;-86
2023/03/05 12:33:40;;;;;;;6.00;2.10;;;3.90;99.90;;;;;;5044571;28;20043;-84
2023/03/05 12:36:32;;;;;;;14.52;5.40;;;3.90;99.90;;;;;;5027715;28;20046;-83
2023/03/05 12:38:58;;;;;;;11.73;4.90;;;3.80;99.90;;;;;;5052672;28;20378;-82
2023/03/05 12:41:24;;;;;;;17.17;8.48;;;3.80;99.90;;;;;;5035085;28;20025;-82
2023/03/05 12:44:05;;;;;;;10.32;3.08;;;3.90;99.90;;;;;;5056641;28;20030;-85
2023/03/05 12:47:09;;;;;;;4.47;2.03;;;3.90;99.90;;;;;;5039221;28;20179;-84
2023/03/05 12:49:44;;;;;;;7.00;2.28;;;3.90;99.90;;;;;;5038512;28;20039;-83
2023/03/05 12:52:33;;;;;;;6.32;1.92;;;4.00;99.90;;;;;;5058947;28;20096;-80
2023/03/05 12:55:02;;;;;;;3.88;1.77;;;4.10;99.90;;;;;;5044378;28;20053;-79
2023/03/05 12:57:30;;;;;;;7.75;1.75;;;4.20;99.90;;;;;;5045745;28;20033;-84
2023/03/05 13:00:20;;;;;;;3.53;1.70;;;4.30;99.90;;;;;;5033737;28;20021;-83
2023/03/05 13:02:54;;;;;;;8.40;2.22;;;4.40;99.90;;;;;;5048812;28;20044;-80
2023/03/05 13:05:31;;;;;;;7.97;1.83;;;4.40;99.90;;;;;;5048174;28;20052;-87
2023/03/05 13:08:20;;;;;;;4.82;1.70;;;4.50;99.90;;;;;;5057332;28;20029;-87